sensor_id;sensor_type;location;lat;lon;timestamp;temperature;humidity
42979;DHT22;28616;44.746;19.678;2022-07-05T00:00:13;23.50;99.90
42979;DHT22;28616;44.746;19.678;2022-07-05T00:02:40;23.50;99.90
42979;DHT22;28616;44.746;19.678;2022-07-05T00:05:06;23.40;99.90
42979;DHT22;28616;44.746;19.678;2022-07-05T00:07:32;23.40;99.90
42979;DHT22;28616;44.746;19.678;2022-07-05T00:09:58;23.40;99.90
42979;DHT22;28616;44.746;19.678;2022-07-05T00:12:30;23.40;99.90
42979;DHT22;28616;44.746;19.678;2022-07-05T00:14:59;23.40;99.90
42979;DHT22;28616;44.746;19.678;2022-07-05T00:17:25;23.40;99.90
42979;DHT22;28616;44.746;19.678;2022-07-05T00:19:51;23.40;99.90
42979;DHT22;28616;44.746;19.678;2022-07-05T00:22:16;23.40;99.90
42979;DHT22;28616;44.746;19.678;2022-07-05T00:24:42;23.40;99.90
42979;DHT22;28616;44.746;19.678;2022-07-05T00:27:08;23.40;99.90
42979;DHT22;28616;44.746;19.678;2022-07-05T00:29:34;23.40;99.90
42979;DHT22;28616;44.746;19.678;2022-07-05T00:32:00;23.50;99.90
42979;DHT22;28616;44.746;19.678;2022-07-05T00:34:26;23.50;99.90
42979;DHT22;28616;44.746;19.678;2022-07-05T00:36:51;23.50;99.90
42979;DHT22;28616;44.746;19.678;2022-07-05T00:39:17;23.50;99.90
42979;DHT22;28616;44.746;19.678;2022-07-05T00:41:43;23.50;99.90
42979;DHT22;28616;44.746;19.678;2022-07-05T00:44:10;23.50;99.90
42979;DHT22;28616;44.746;19.678;2022-07-05T00:46:37;23.60;99.90
42979;DHT22;28616;44.746;19.678;2022-07-05T00:49:04;23.60;99.90
42979;DHT22;28616;44.746;19.678;2022-07-05T00:51:35;23.60;99.90
42979;DHT22;28616;44.746;19.678;2022-07-05T00:54:01;23.60;99.90
42979;DHT22;28616;44.746;19.678;2022-07-05T00:56:27;23.60;99.90
42979;DHT22;28616;44.746;19.678;2022-07-05T00:58:53;23.60;99.90
42979;DHT22;28616;44.746;19.678;2022-07-05T01:01:20;23.60;99.90
42979;DHT22;28616;44.746;19.678;2022-07-05T01:03:46;23.60;99.90
42979;DHT22;28616;44.746;19.678;2022-07-05T01:06:13;23.60;99.90
42979;DHT22;28616;44.746;19.678;2022-07-05T01:08:41;23.50;99.90
42979;DHT22;28616;44.746;19.678;2022-07-05T01:11:09;23.50;99.90
42979;DHT22;28616;44.746;19.678;2022-07-05T01:13:36;23.40;99.90
42979;DHT22;28616;44.746;19.678;2022-07-05T01:16:03;23.30;99.90
42979;DHT22;28616;44.746;19.678;2022-07-05T01:18:29;23.30;99.90
42979;DHT22;28616;44.746;19.678;2022-07-05T01:20:58;23.30;99.90
42979;DHT22;28616;44.746;19.678;2022-07-05T01:23:26;23.30;99.90
42979;DHT22;28616;44.746;19.678;2022-07-05T01:25:54;23.20;99.90
42979;DHT22;28616;44.746;19.678;2022-07-05T01:28:20;23.20;99.90
42979;DHT22;28616;44.746;19.678;2022-07-05T01:30:47;23.20;99.90
42979;DHT22;28616;44.746;19.678;2022-07-05T01:33:12;23.20;99.90
42979;DHT22;28616;44.746;19.678;2022-07-05T01:35:38;23.20;99.90
42979;DHT22;28616;44.746;19.678;2022-07-05T01:38:04;23.20;99.90
42979;DHT22;28616;44.746;19.678;2022-07-05T01:40:30;23.20;99.90
42979;DHT22;28616;44.746;19.678;2022-07-05T01:42:56;23.20;99.90
42979;DHT22;28616;44.746;19.678;2022-07-05T01:45:23;23.20;99.90
42979;DHT22;28616;44.746;19.678;2022-07-05T01:48:12;23.20;99.90
42979;DHT22;28616;44.746;19.678;2022-07-05T01:50:54;23.10;99.90
42979;DHT22;28616;44.746;19.678;2022-07-05T01:53:39;23.00;99.90
42979;DHT22;28616;44.746;19.678;2022-07-05T01:56:05;23.10;99.90
42979;DHT22;28616;44.746;19.678;2022-07-05T01:58:31;23.00;99.90
42979;DHT22;28616;44.746;19.678;2022-07-05T02:00:58;23.00;99.90
42979;DHT22;28616;44.746;19.678;2022-07-05T02:03:25;23.00;99.90
42979;DHT22;28616;44.746;19.678;2022-07-05T02:05:51;23.10;99.90
42979;DHT22;28616;44.746;19.678;2022-07-05T02:08:18;23.10;99.90
42979;DHT22;28616;44.746;19.678;2022-07-05T02:10:45;23.20;99.90
42979;DHT22;28616;44.746;19.678;2022-07-05T02:13:11;23.20;99.90
42979;DHT22;28616;44.746;19.678;2022-07-05T02:15:40;23.20;99.90
42979;DHT22;28616;44.746;19.678;2022-07-05T02:18:06;23.10;99.90
42979;DHT22;28616;44.746;19.678;2022-07-05T02:20:33;23.10;99.90
42979;DHT22;28616;44.746;19.678;2022-07-05T02:23:00;23.10;99.90
42979;DHT22;28616;44.746;19.678;2022-07-05T02:25:26;23.00;99.90
42979;DHT22;28616;44.746;19.678;2022-07-05T02:27:52;23.00;99.90
42979;DHT22;28616;44.746;19.678;2022-07-05T02:30:19;23.00;99.90
42979;DHT22;28616;44.746;19.678;2022-07-05T02:32:45;23.00;99.90
42979;DHT22;28616;44.746;19.678;2022-07-05T02:35:11;23.00;99.90
42979;DHT22;28616;44.746;19.678;2022-07-05T02:37:38;23.00;99.90
42979;DHT22;28616;44.746;19.678;2022-07-05T02:40:11;23.00;99.90
42979;DHT22;28616;44.746;19.678;2022-07-05T02:42:37;22.90;99.90
42979;DHT22;28616;44.746;19.678;2022-07-05T02:45:04;23.00;99.90
42979;DHT22;28616;44.746;19.678;2022-07-05T02:47:31;23.00;99.90
42979;DHT22;28616;44.746;19.678;2022-07-05T02:49:58;23.00;99.90
42979;DHT22;28616;44.746;19.678;2022-07-05T02:52:24;23.00;99.90
42979;DHT22;28616;44.746;19.678;2022-07-05T02:54:50;23.00;99.90
42979;DHT22;28616;44.746;19.678;2022-07-05T02:57:16;22.80;99.90
42979;DHT22;28616;44.746;19.678;2022-07-05T02:59:41;22.80;99.90
42979;DHT22;28616;44.746;19.678;2022-07-05T03:02:07;22.70;99.90
42979;DHT22;28616;44.746;19.678;2022-07-05T03:04:33;22.60;99.90
42979;DHT22;28616;44.746;19.678;2022-07-05T03:06:59;22.60;99.90
42979;DHT22;28616;44.746;19.678;2022-07-05T03:09:25;22.60;99.90
42979;DHT22;28616;44.746;19.678;2022-07-05T03:11:51;22.60;99.90
42979;DHT22;28616;44.746;19.678;2022-07-05T03:14:16;22.60;99.90
42979;DHT22;28616;44.746;19.678;2022-07-05T03:16:42;22.50;99.90
42979;DHT22;28616;44.746;19.678;2022-07-05T03:19:10;22.50;99.90
42979;DHT22;28616;44.746;19.678;2022-07-05T03:21:36;22.50;99.90
42979;DHT22;28616;44.746;19.678;2022-07-05T03:24:02;22.50;99.90
42979;DHT22;28616;44.746;19.678;2022-07-05T03:26:28;22.60;99.90
42979;DHT22;28616;44.746;19.678;2022-07-05T03:28:54;22.60;99.90
42979;DHT22;28616;44.746;19.678;2022-07-05T03:31:20;22.60;99.90
42979;DHT22;28616;44.746;19.678;2022-07-05T03:33:45;22.60;99.90
42979;DHT22;28616;44.746;19.678;2022-07-05T03:36:12;22.60;99.90
42979;DHT22;28616;44.746;19.678;2022-07-05T03:38:37;22.70;99.90
42979;DHT22;28616;44.746;19.678;2022-07-05T03:41:03;22.70;99.90
42979;DHT22;28616;44.746;19.678;2022-07-05T03:43:29;22.70;99.90
42979;DHT22;28616;44.746;19.678;2022-07-05T03:45:55;22.80;99.90
42979;DHT22;28616;44.746;19.678;2022-07-05T03:48:21;22.70;99.90
42979;DHT22;28616;44.746;19.678;2022-07-05T03:50:47;22.70;99.90
42979;DHT22;28616;44.746;19.678;2022-07-05T03:53:13;22.70;99.90
42979;DHT22;28616;44.746;19.678;2022-07-05T03:55:39;22.80;99.90
42979;DHT22;28616;44.746;19.678;2022-07-05T03:58:05;22.80;99.90
42979;DHT22;28616;44.746;19.678;2022-07-05T04:00:31;22.80;99.90
42979;DHT22;28616;44.746;19.678;2022-07-05T04:02:57;22.80;99.90
42979;DHT22;28616;44.746;19.678;2022-07-05T04:05:23;22.90;99.90
42979;DHT22;28616;44.746;19.678;2022-07-05T04:07:54;22.90;99.90
42979;DHT22;28616;44.746;19.678;2022-07-05T04:10:20;22.90;99.90
42979;DHT22;28616;44.746;19.678;2022-07-05T04:12:47;22.90;99.90
42979;DHT22;28616;44.746;19.678;2022-07-05T04:15:13;22.80;99.90
42979;DHT22;28616;44.746;19.678;2022-07-05T04:17:53;22.80;99.90
42979;DHT22;28616;44.746;19.678;2022-07-05T04:20:20;22.90;99.90
42979;DHT22;28616;44.746;19.678;2022-07-05T04:22:47;22.90;99.90
42979;DHT22;28616;44.746;19.678;2022-07-05T04:25:13;22.90;99.90
42979;DHT22;28616;44.746;19.678;2022-07-05T04:30:11;23.00;99.90
42979;DHT22;28616;44.746;19.678;2022-07-05T04:32:36;23.10;99.90
42979;DHT22;28616;44.746;19.678;2022-07-05T04:35:02;23.20;99.90
42979;DHT22;28616;44.746;19.678;2022-07-05T04:37:28;23.20;99.90
42979;DHT22;28616;44.746;19.678;2022-07-05T04:39:54;23.30;99.90
42979;DHT22;28616;44.746;19.678;2022-07-05T17:06:08;25.30;99.90
42979;DHT22;28616;44.746;19.678;2022-07-05T17:08:38;25.20;99.90
42979;DHT22;28616;44.746;19.678;2022-07-05T17:11:08;24.90;99.90
42979;DHT22;28616;44.746;19.678;2022-07-05T17:13:42;24.60;99.90
42979;DHT22;28616;44.746;19.678;2022-07-05T17:16:10;24.30;99.90
42979;DHT22;28616;44.746;19.678;2022-07-05T17:18:38;23.80;99.90
42979;DHT22;28616;44.746;19.678;2022-07-05T17:21:06;23.20;99.90
42979;DHT22;28616;44.746;19.678;2022-07-05T17:23:33;22.60;99.90
42979;DHT22;28616;44.746;19.678;2022-07-05T17:26:01;22.00;99.90
42979;DHT22;28616;44.746;19.678;2022-07-05T17:28:27;21.50;99.90
42979;DHT22;28616;44.746;19.678;2022-07-05T17:30:53;21.10;99.90
42979;DHT22;28616;44.746;19.678;2022-07-05T17:33:18;20.90;99.90
42979;DHT22;28616;44.746;19.678;2022-07-05T17:35:44;20.80;99.90
42979;DHT22;28616;44.746;19.678;2022-07-05T17:38:10;20.60;99.90
42979;DHT22;28616;44.746;19.678;2022-07-05T17:40:36;20.60;99.90
42979;DHT22;28616;44.746;19.678;2022-07-05T17:43:01;20.40;99.90
42979;DHT22;28616;44.746;19.678;2022-07-05T17:45:27;20.40;99.90
42979;DHT22;28616;44.746;19.678;2022-07-05T17:47:53;20.30;99.90
42979;DHT22;28616;44.746;19.678;2022-07-05T17:50:19;20.30;99.90
42979;DHT22;28616;44.746;19.678;2022-07-05T17:52:45;20.30;99.90
42979;DHT22;28616;44.746;19.678;2022-07-05T17:55:11;20.40;99.90
42979;DHT22;28616;44.746;19.678;2022-07-05T17:57:37;20.30;99.90
42979;DHT22;28616;44.746;19.678;2022-07-05T18:00:04;20.20;99.90
42979;DHT22;28616;44.746;19.678;2022-07-05T18:02:30;20.20;99.90
42979;DHT22;28616;44.746;19.678;2022-07-05T18:04:55;20.10;99.90
42979;DHT22;28616;44.746;19.678;2022-07-05T18:07:21;20.00;99.90
42979;DHT22;28616;44.746;19.678;2022-07-05T18:09:47;20.00;99.90
42979;DHT22;28616;44.746;19.678;2022-07-05T18:12:13;20.00;99.90
42979;DHT22;28616;44.746;19.678;2022-07-05T18:14:39;20.00;99.90
42979;DHT22;28616;44.746;19.678;2022-07-05T18:17:04;20.00;99.90
42979;DHT22;28616;44.746;19.678;2022-07-05T18:19:30;20.00;99.90
42979;DHT22;28616;44.746;19.678;2022-07-05T18:21:56;20.10;99.90
42979;DHT22;28616;44.746;19.678;2022-07-05T18:24:22;20.20;99.90
42979;DHT22;28616;44.746;19.678;2022-07-05T18:26:48;20.30;99.90
42979;DHT22;28616;44.746;19.678;2022-07-05T18:29:13;20.30;99.90
42979;DHT22;28616;44.746;19.678;2022-07-05T18:31:39;20.40;99.90
42979;DHT22;28616;44.746;19.678;2022-07-05T18:34:05;20.50;99.90
42979;DHT22;28616;44.746;19.678;2022-07-05T18:36:31;20.50;99.90
42979;DHT22;28616;44.746;19.678;2022-07-05T18:38:56;20.60;99.90
42979;DHT22;28616;44.746;19.678;2022-07-05T18:41:23;20.60;99.90
42979;DHT22;28616;44.746;19.678;2022-07-05T18:43:48;20.60;99.90
42979;DHT22;28616;44.746;19.678;2022-07-05T18:46:15;20.60;99.90
42979;DHT22;28616;44.746;19.678;2022-07-05T18:48:41;20.70;99.90
42979;DHT22;28616;44.746;19.678;2022-07-05T18:51:07;20.80;99.90
42979;DHT22;28616;44.746;19.678;2022-07-05T18:59:53;20.80;99.90
42979;DHT22;28616;44.746;19.678;2022-07-05T19:02:25;20.70;99.90
42979;DHT22;28616;44.746;19.678;2022-07-05T19:05:03;20.60;99.90
42979;DHT22;28616;44.746;19.678;2022-07-05T19:07:29;20.60;99.90
42979;DHT22;28616;44.746;19.678;2022-07-05T19:21:04;20.50;99.90
42979;DHT22;28616;44.746;19.678;2022-07-05T19:23:51;20.50;99.90
42979;DHT22;28616;44.746;19.678;2022-07-05T19:26:19;20.50;99.90
42979;DHT22;28616;44.746;19.678;2022-07-05T19:28:45;20.60;99.90
42979;DHT22;28616;44.746;19.678;2022-07-05T19:31:16;20.60;99.90
42979;DHT22;28616;44.746;19.678;2022-07-05T19:33:45;20.60;99.90
42979;DHT22;28616;44.746;19.678;2022-07-05T19:36:16;20.70;99.90
42979;DHT22;28616;44.746;19.678;2022-07-05T19:38:42;20.70;99.90
42979;DHT22;28616;44.746;19.678;2022-07-05T19:41:07;20.70;99.90
42979;DHT22;28616;44.746;19.678;2022-07-05T19:43:33;20.60;99.90
42979;DHT22;28616;44.746;19.678;2022-07-05T19:45:59;20.60;99.90
42979;DHT22;28616;44.746;19.678;2022-07-05T19:48:25;20.70;99.90
42979;DHT22;28616;44.746;19.678;2022-07-05T19:50:52;20.60;99.90
42979;DHT22;28616;44.746;19.678;2022-07-05T19:53:18;20.60;99.90
42979;DHT22;28616;44.746;19.678;2022-07-05T19:55:44;20.60;99.90
42979;DHT22;28616;44.746;19.678;2022-07-05T19:58:10;20.70;99.90
42979;DHT22;28616;44.746;19.678;2022-07-05T20:00:38;20.70;99.90
42979;DHT22;28616;44.746;19.678;2022-07-05T20:03:03;20.80;99.90
42979;DHT22;28616;44.746;19.678;2022-07-05T20:05:29;20.80;99.90
42979;DHT22;28616;44.746;19.678;2022-07-05T20:07:55;20.90;99.90
42979;DHT22;28616;44.746;19.678;2022-07-05T20:10:21;20.90;99.90
42979;DHT22;28616;44.746;19.678;2022-07-05T20:12:47;20.90;99.90
42979;DHT22;28616;44.746;19.678;2022-07-05T20:15:12;20.90;99.90
42979;DHT22;28616;44.746;19.678;2022-07-05T20:17:38;20.90;99.90
42979;DHT22;28616;44.746;19.678;2022-07-05T20:20:05;20.90;99.90
42979;DHT22;28616;44.746;19.678;2022-07-05T20:22:31;20.80;99.90
42979;DHT22;28616;44.746;19.678;2022-07-05T20:24:58;20.70;99.90
42979;DHT22;28616;44.746;19.678;2022-07-05T20:27:23;20.70;99.90
42979;DHT22;28616;44.746;19.678;2022-07-05T20:29:49;20.60;99.90
42979;DHT22;28616;44.746;19.678;2022-07-05T20:32:15;20.60;99.90
42979;DHT22;28616;44.746;19.678;2022-07-05T20:34:41;20.70;99.90
42979;DHT22;28616;44.746;19.678;2022-07-05T20:37:08;20.70;99.90
42979;DHT22;28616;44.746;19.678;2022-07-05T20:39:34;20.70;99.90
42979;DHT22;28616;44.746;19.678;2022-07-05T20:42:00;20.80;99.90
42979;DHT22;28616;44.746;19.678;2022-07-05T20:44:26;20.80;99.90
42979;DHT22;28616;44.746;19.678;2022-07-05T20:46:52;20.70;99.90
42979;DHT22;28616;44.746;19.678;2022-07-05T20:49:18;20.70;99.90
42979;DHT22;28616;44.746;19.678;2022-07-05T20:51:44;20.70;99.90
42979;DHT22;28616;44.746;19.678;2022-07-05T20:54:09;20.60;99.90
42979;DHT22;28616;44.746;19.678;2022-07-05T20:56:35;20.60;99.90
42979;DHT22;28616;44.746;19.678;2022-07-05T20:59:01;20.60;99.90
42979;DHT22;28616;44.746;19.678;2022-07-05T21:01:27;20.50;99.90
42979;DHT22;28616;44.746;19.678;2022-07-05T21:03:52;20.60;99.90
42979;DHT22;28616;44.746;19.678;2022-07-05T21:06:18;20.50;99.90
42979;DHT22;28616;44.746;19.678;2022-07-05T21:08:44;20.60;99.90
42979;DHT22;28616;44.746;19.678;2022-07-05T21:11:10;20.50;99.90
42979;DHT22;28616;44.746;19.678;2022-07-05T21:13:35;20.60;99.90
42979;DHT22;28616;44.746;19.678;2022-07-05T21:16:03;20.50;99.90
42979;DHT22;28616;44.746;19.678;2022-07-05T21:18:29;20.50;99.90
42979;DHT22;28616;44.746;19.678;2022-07-05T21:20:55;20.50;99.90
42979;DHT22;28616;44.746;19.678;2022-07-05T21:23:21;20.50;99.90
42979;DHT22;28616;44.746;19.678;2022-07-05T21:25:47;20.50;99.90
42979;DHT22;28616;44.746;19.678;2022-07-05T21:28:12;20.40;99.90
42979;DHT22;28616;44.746;19.678;2022-07-05T21:30:38;20.40;99.90
42979;DHT22;28616;44.746;19.678;2022-07-05T21:33:04;20.50;99.90
42979;DHT22;28616;44.746;19.678;2022-07-05T21:35:30;20.40;99.90
42979;DHT22;28616;44.746;19.678;2022-07-05T21:37:55;20.40;99.90
42979;DHT22;28616;44.746;19.678;2022-07-05T21:40:21;20.30;99.90
42979;DHT22;28616;44.746;19.678;2022-07-05T21:42:47;20.30;99.90
42979;DHT22;28616;44.746;19.678;2022-07-05T21:45:13;20.30;99.90
42979;DHT22;28616;44.746;19.678;2022-07-05T21:47:38;20.20;99.90
42979;DHT22;28616;44.746;19.678;2022-07-05T21:50:05;20.20;99.90
42979;DHT22;28616;44.746;19.678;2022-07-05T21:52:31;20.20;99.90
42979;DHT22;28616;44.746;19.678;2022-07-05T21:54:56;20.30;99.90
42979;DHT22;28616;44.746;19.678;2022-07-05T21:57:22;20.30;99.90
42979;DHT22;28616;44.746;19.678;2022-07-05T21:59:48;20.20;99.90
42979;DHT22;28616;44.746;19.678;2022-07-05T22:02:32;20.30;99.90
42979;DHT22;28616;44.746;19.678;2022-07-05T22:05:17;20.30;99.90
42979;DHT22;28616;44.746;19.678;2022-07-05T22:07:43;20.30;99.90
42979;DHT22;28616;44.746;19.678;2022-07-05T22:10:09;20.20;99.90
42979;DHT22;28616;44.746;19.678;2022-07-05T22:12:35;20.30;99.90
42979;DHT22;28616;44.746;19.678;2022-07-05T22:15:01;20.20;99.90
42979;DHT22;28616;44.746;19.678;2022-07-05T22:17:26;20.30;99.90
42979;DHT22;28616;44.746;19.678;2022-07-05T22:19:52;20.30;99.90
42979;DHT22;28616;44.746;19.678;2022-07-05T22:22:18;20.30;99.90
42979;DHT22;28616;44.746;19.678;2022-07-05T22:24:45;20.20;99.90
42979;DHT22;28616;44.746;19.678;2022-07-05T22:27:11;20.30;99.90
42979;DHT22;28616;44.746;19.678;2022-07-05T22:29:37;20.30;99.90
42979;DHT22;28616;44.746;19.678;2022-07-05T22:32:03;20.30;99.90
42979;DHT22;28616;44.746;19.678;2022-07-05T22:34:29;20.30;99.90
42979;DHT22;28616;44.746;19.678;2022-07-05T22:36:55;20.30;99.90
42979;DHT22;28616;44.746;19.678;2022-07-05T22:39:21;20.30;99.90
42979;DHT22;28616;44.746;19.678;2022-07-05T22:41:46;20.30;99.90
42979;DHT22;28616;44.746;19.678;2022-07-05T22:44:12;20.20;99.90
42979;DHT22;28616;44.746;19.678;2022-07-05T22:46:38;20.20;99.90
42979;DHT22;28616;44.746;19.678;2022-07-05T22:49:04;20.20;99.90
42979;DHT22;28616;44.746;19.678;2022-07-05T22:51:29;20.20;99.90
42979;DHT22;28616;44.746;19.678;2022-07-05T22:53:55;20.20;99.90
42979;DHT22;28616;44.746;19.678;2022-07-05T22:56:21;20.20;99.90
42979;DHT22;28616;44.746;19.678;2022-07-05T22:58:47;20.30;99.90
42979;DHT22;28616;44.746;19.678;2022-07-05T23:01:13;20.30;99.90
42979;DHT22;28616;44.746;19.678;2022-07-05T23:03:39;20.30;99.90
42979;DHT22;28616;44.746;19.678;2022-07-05T23:06:05;20.30;99.90
42979;DHT22;28616;44.746;19.678;2022-07-05T23:08:31;20.20;99.90
42979;DHT22;28616;44.746;19.678;2022-07-05T23:10:56;20.30;99.90
42979;DHT22;28616;44.746;19.678;2022-07-05T23:13:22;20.30;99.90
42979;DHT22;28616;44.746;19.678;2022-07-05T23:15:48;20.20;99.90
42979;DHT22;28616;44.746;19.678;2022-07-05T23:18:14;20.20;99.90
42979;DHT22;28616;44.746;19.678;2022-07-05T23:20:39;20.20;99.90
42979;DHT22;28616;44.746;19.678;2022-07-05T23:23:05;20.20;99.90
42979;DHT22;28616;44.746;19.678;2022-07-05T23:25:31;20.20;99.90
42979;DHT22;28616;44.746;19.678;2022-07-05T23:27:57;20.30;99.90
42979;DHT22;28616;44.746;19.678;2022-07-05T23:30:23;20.20;99.90
42979;DHT22;28616;44.746;19.678;2022-07-05T23:32:49;20.20;99.90
42979;DHT22;28616;44.746;19.678;2022-07-05T23:35:14;20.20;99.90
42979;DHT22;28616;44.746;19.678;2022-07-05T23:37:40;20.20;99.90
42979;DHT22;28616;44.746;19.678;2022-07-05T23:40:06;20.10;99.90
42979;DHT22;28616;44.746;19.678;2022-07-05T23:42:32;20.10;99.90
42979;DHT22;28616;44.746;19.678;2022-07-05T23:44:58;20.10;99.90
42979;DHT22;28616;44.746;19.678;2022-07-05T23:47:24;20.10;99.90
42979;DHT22;28616;44.746;19.678;2022-07-05T23:49:50;20.00;99.90
42979;DHT22;28616;44.746;19.678;2022-07-05T23:52:15;20.00;99.90
42979;DHT22;28616;44.746;19.678;2022-07-05T23:54:41;20.00;99.90
42979;DHT22;28616;44.746;19.678;2022-07-05T23:57:07;20.00;99.90
42979;DHT22;28616;44.746;19.678;2022-07-05T23:59:33;20.00;99.90
